JAI559 VOHS-VECC
Flight info
| Callsign | JAI559 |
|---|---|
| Flight time | N/A |
| Altitude | 37000 |
| Route | VIRKO7 SAPNU W41 KAKID KAKID2A |
| Aircraft | B738/M-SDE2E3FGHIRWXY/LB1 |
Departure
| Time | 2026-04-22 15:02 |
|---|---|
| Airport | Rajiv Gandhi International Airport (VOHS) |
Arrival
| Time | N/A |
|---|---|
| Airport | Netaji Subhash Chandra Bose International Airport (VECC) |
| Time | Latitude | Longitude | Altitude | Speed | Heading |
|---|---|---|---|---|---|
| 2026-04-22 14:59 | 17.23059 | 78.41323 | 1960 ft | 42 kts | 264° |
| 2026-04-22 14:59 | 17.22918 | 78.41267 | 1968 ft | 22 kts | 146° |
| 2026-04-22 14:59 | 17.22860 | 78.41389 | 1970 ft | 16 kts | 87° |
| 2026-04-22 14:59 | 17.22861 | 78.41402 | 1970 ft | 0 kts | 87° |
| 2026-04-22 15:00 | 17.22861 | 78.41406 | 1970 ft | 2 kts | 87° |
| 2026-04-22 15:00 | 17.22863 | 78.41509 | 1969 ft | 34 kts | 89° |
| 2026-04-22 15:00 | 17.22866 | 78.41872 | 1966 ft | 71 kts | 90° |
| 2026-04-22 15:01 | 17.22858 | 78.42602 | 1986 ft | 121 kts | 92° |
| 2026-04-22 15:01 | 17.22793 | 78.43565 | 2019 ft | 143 kts | 102° |
| 2026-04-22 15:01 | 17.22561 | 78.44645 | 2039 ft | 163 kts | 109° |
| 2026-04-22 15:01 | 17.22327 | 78.45879 | 2577 ft | 177 kts | 94° |
| 2026-04-22 15:02 | 17.22499 | 78.47145 | 3311 ft | 180 kts | 79° |
| 2026-04-22 15:02 | 17.22790 | 78.48389 | 3930 ft | 181 kts | 79° |
| 2026-04-22 15:02 | 17.22971 | 78.49751 | 4306 ft | 193 kts | 88° |
| 2026-04-22 15:02 | 17.23021 | 78.51187 | 4606 ft | 210 kts | 89° |
| 2026-04-22 15:03 | 17.23061 | 78.52826 | 4520 ft | 234 kts | 90° |
| 2026-04-22 15:03 | 17.23119 | 78.54588 | 4538 ft | 256 kts | 85° |
| 2026-04-22 15:03 | 17.23399 | 78.56489 | 4984 ft | 271 kts | 80° |
| 2026-04-22 15:03 | 17.23763 | 78.58409 | 5739 ft | 272 kts | 79° |
| 2026-04-22 15:04 | 17.24135 | 78.60335 | 6405 ft | 278 kts | 78° |
| 2026-04-22 15:04 | 17.24533 | 78.62372 | 7078 ft | 285 kts | 78° |
| 2026-04-22 15:04 | 17.24909 | 78.64347 | 7979 ft | 282 kts | 78° |
| 2026-04-22 15:04 | 17.25283 | 78.66379 | 8527 ft | 294 kts | 78° |
| 2026-04-22 15:05 | 17.25672 | 78.68413 | 9313 ft | 296 kts | 77° |
| 2026-04-22 15:05 | 17.26079 | 78.70507 | 10102 ft | 300 kts | 77° |
| 2026-04-22 15:05 | 17.26495 | 78.72686 | 10612 ft | 316 kts | 77° |
| 2026-04-22 15:05 | 17.26923 | 78.74992 | 11165 ft | 330 kts | 78° |
| 2026-04-22 15:06 | 17.27366 | 78.77394 | 11453 ft | 348 kts | 78° |
| 2026-04-22 15:06 | 17.27823 | 78.79888 | 11341 ft | 354 kts | 78° |
| 2026-04-22 15:06 | 17.28286 | 78.82421 | 11316 ft | 357 kts | 78° |
| 2026-04-22 15:06 | 17.28752 | 78.84973 | 11310 ft | 358 kts | 78° |
| 2026-04-22 15:07 | 17.29210 | 78.87468 | 11304 ft | 358 kts | 78° |
| 2026-04-22 15:07 | 17.29676 | 78.90012 | 11301 ft | 358 kts | 78° |
| 2026-04-22 15:07 | 17.30143 | 78.92566 | 11301 ft | 356 kts | 78° |
| 2026-04-22 15:07 | 17.30605 | 78.95091 | 11297 ft | 358 kts | 78° |
| 2026-04-22 15:08 | 17.31068 | 78.97625 | 11295 ft | 358 kts | 78° |
| 2026-04-22 15:08 | 17.31533 | 79.00184 | 11299 ft | 361 kts | 78° |
| 2026-04-22 15:08 | 17.32009 | 79.02794 | 12095 ft | 365 kts | 78° |
| 2026-04-22 15:08 | 17.32471 | 79.05326 | 13024 ft | 365 kts | 78° |
| 2026-04-22 15:09 | 17.32948 | 79.07932 | 13848 ft | 368 kts | 78° |
| 2026-04-22 15:09 | 17.33429 | 79.10564 | 14642 ft | 373 kts | 78° |
| 2026-04-22 15:09 | 17.33911 | 79.13211 | 15440 ft | 377 kts | 78° |
| 2026-04-22 15:09 | 17.34403 | 79.15913 | 16226 ft | 381 kts | 77° |
| 2026-04-22 15:10 | 17.34897 | 79.18622 | 16952 ft | 386 kts | 78° |
| 2026-04-22 15:10 | 17.35404 | 79.21403 | 17663 ft | 391 kts | 78° |
| 2026-04-22 15:10 | 17.35909 | 79.24176 | 18289 ft | 397 kts | 78° |
| 2026-04-22 15:10 | 17.36430 | 79.27050 | 18927 ft | 404 kts | 78° |
| 2026-04-22 15:11 | 17.36956 | 79.29957 | 19575 ft | 409 kts | 79° |
| 2026-04-22 15:11 | 17.37482 | 79.32864 | 20189 ft | 414 kts | 79° |
| 2026-04-22 15:11 | 17.38026 | 79.35872 | 20771 ft | 421 kts | 79° |
| 2026-04-22 15:11 | 17.38568 | 79.38871 | 21379 ft | 426 kts | 79° |
| 2026-04-22 15:12 | 17.39117 | 79.41908 | 21939 ft | 431 kts | 79° |
| 2026-04-22 15:12 | 17.39677 | 79.45013 | 22513 ft | 436 kts | 79° |
| 2026-04-22 15:12 | 17.40242 | 79.48148 | 23027 ft | 442 kts | 80° |
| 2026-04-22 15:12 | 17.40811 | 79.51312 | 23599 ft | 446 kts | 80° |
| 2026-04-22 15:13 | 17.41380 | 79.54476 | 24119 ft | 451 kts | 80° |
| 2026-04-22 15:13 | 17.41962 | 79.57719 | 24700 ft | 454 kts | 80° |
| 2026-04-22 15:13 | 17.42541 | 79.60944 | 25180 ft | 459 kts | 81° |
| 2026-04-22 15:13 | 17.43131 | 79.64234 | 25657 ft | 464 kts | 81° |
| 2026-04-22 15:14 | 17.43704 | 79.67437 | 26135 ft | 468 kts | 81° |
| 2026-04-22 15:14 | 17.44306 | 79.70793 | 26626 ft | 472 kts | 81° |
| 2026-04-22 15:14 | 17.44917 | 79.74208 | 27083 ft | 477 kts | 81° |
| 2026-04-22 15:14 | 17.45502 | 79.77480 | 27501 ft | 481 kts | 82° |
| 2026-04-22 15:15 | 17.46109 | 79.80881 | 27930 ft | 485 kts | 82° |
| 2026-04-22 15:15 | 17.46724 | 79.84330 | 28367 ft | 489 kts | 82° |
| 2026-04-22 15:15 | 17.47336 | 79.87768 | 28820 ft | 493 kts | 82° |
| 2026-04-22 15:15 | 17.47955 | 79.91252 | 29154 ft | 498 kts | 82° |
| 2026-04-22 15:16 | 17.48543 | 79.94563 | 29560 ft | 501 kts | 82° |
| 2026-04-22 15:16 | 17.49185 | 79.98183 | 29930 ft | 505 kts | 83° |
| 2026-04-22 15:16 | 17.49820 | 80.01757 | 30539 ft | 503 kts | 83° |
| 2026-04-22 15:16 | 17.50428 | 80.05135 | 31009 ft | 504 kts | 82° |
| 2026-04-22 15:17 | 17.51130 | 80.08432 | 31454 ft | 506 kts | 79° |
| 2026-04-22 15:17 | 17.52069 | 80.12106 | 31878 ft | 510 kts | 78° |
| 2026-04-22 15:17 | 17.53046 | 80.15558 | 32250 ft | 513 kts | 77° |
| 2026-04-22 15:17 | 17.54068 | 80.19006 | 32699 ft | 513 kts | 77° |
| 2026-04-22 15:18 | 17.55022 | 80.22172 | 33165 ft | 513 kts | 76° |